College Campus, Kentucky
Current Conditions -  °F | °C
As of 11:35 AM on Wednesday 26 Nov 2014 (Local Time) from KCEY Reporting Station
Clear Clear  
Wind Chill: 39°   Ceiling: Unl
Heat Index: 43°   Visibility: 10mi
Dew Point: 28°   Wind: 7mph
Humidity: 57%   Direction: 160°SSE
Pressure: 30.06"   Gusts: NA
Location:  36.618°N, 88.2562°W
Report Text: KCEY 261735Z AUTO 16006KT 10SM CLR 06/M02 A3006 RMK AO1
Loading
Personal Weather Stations






























Interactive Weather Map New forecast layout! Learn more

10-Day Weather Forecast

Advertisements
Track Severe Weather on mobile